Detall de PIREP

Printer-friendly versionPDF version

[2009/05/24 13:20:00]
Flight IATA:CT2111
Pilot Number:041
Company ICAO:CAT
Aircraft Type:AT72/F
PAX:66
Departing Airport: LEST
Destination Airport: LEVC
Alternate Airport:LEAL
Online: VATSIM
Route:FORNO1B A33 ZMR A33 DISKO A33 INDEG A33 MAGIN A33 HORTA A33 CJN A33 PRADO A33 CENTA1D
Flight Level:FL180
No Slew and time accel
No pause
Crash detect
Detect pilot in Cockpit between each 30 and 45 minutes
13:20 Zero fuel Weight: 42945 Lbs, Fuel Weight: 5467 Lbs
13:20 VATSIM:LEST 241300Z 36007KT 310V040 9000 SCT004 OVC015 11/11 Q1018 NOSIG
13:20 VATSIM:LEVC 241300Z 08016KT 9999 SCT025 24/18 Q1015 NOSIG
13:21 VOICE CATALONIAN
13:23 Parking Brakes off
13:33 Take-off
13:33 Take off Weight: 48301 Lbs
13:33 Wind: 006º @ 006 Knots Heading: 344º
13:33 POS N42º 53´ 42´´ W008º 24´ 53´´
13:33 Gear Up: 130 Knots
13:33 Flaps:1 at 130 Knots
13:33 Flaps:0 at 139 Knots
13:48 Wind:045º
@017 Knots Heading: 117º Ground Speed: 229 Knots Altitude 15321 ft
13:50 TOC
13:50 Fuel Weight: 4724 Lb
14:03 Wind:085º@014 Knots Heading: 122º Ground Speed: 269 Knots Altitude 18083 ft
14:18 Wind:107º@016 Knots Heading: 114º Ground Speed: 267 Knots Altitude 18047 ft
14:33 Wind:170º@010 Knots Heading: 118º Ground Speed: 279 Knots Altitude 18051 ft
14:39 TOD
14:39 Fuel Weight: 3211 Lb
14:48 Wind:192º@007 Knots Heading: 120º Ground Speed: 260 Knots Altitude 10275 ft
15:03 Wind:187º@010 Knots Heading: 118º Ground Speed: 238 Knots Altitude 4425 ft
15:09 Flaps:1 at 190 Knots
15:09 Gear Down: 175 Knots
15:12 TouchDown:Rate -146 ft/min Speed: 107 Knots
15:12 Flaps:0 at 98 Knots
15:13 VATSIM:LEVC 241500Z 08014KT 9999 FEW010 SCT020 BKN030 23/18 Q1015 NOSIG
15:13 Land
15:13 Wind:103º@009 Knots
15:13 Heading: 115º
15:13 Flight Duration: 01:40
15:13 Landing Weight: 454
49 Lbs
15:13 POS N39º 29´ 24´´ W000º 29´ 00´´
15:16 Parking brakes on
15:16 Block to Block Duration: 01:53
15:16 Final Fuel: 2482 Lbls
15:16 Spent Fuel: 2985 Lbls
15:16 Flight Length: 423 NM
15:16 TOD Land Length: 134 NM

Exportar CSV

Powered by Drupal - Modified by Danger4k